createdAt,value
2018-08-16T00:00:25.174Z,70.75
2018-08-16T00:02:53.470Z,70.89
2018-08-16T00:05:22.133Z,70.97
2018-08-16T00:07:50.593Z,70.91
2018-08-16T00:10:19.644Z,70.91
2018-08-16T00:12:49.742Z,70.96
2018-08-16T00:15:20.115Z,71.04
2018-08-16T00:17:48.535Z,70.94
2018-08-16T00:20:16.953Z,70.67
2018-08-16T00:22:45.938Z,70.23
2018-08-16T00:25:15.509Z,70.35
2018-08-16T00:27:44.281Z,70.78
2018-08-16T00:30:15.248Z,71.39
2018-08-16T00:32:44.301Z,71.72
2018-08-16T00:35:12.689Z,72.00
2018-08-16T00:41:30.116Z,71.57
2018-08-16T00:43:59.023Z,71.83
2018-08-16T00:46:29.205Z,72.40
2018-08-16T00:48:57.721Z,73.20
2018-08-16T00:51:26.555Z,73.73
2018-08-16T00:53:54.796Z,74.10
2018-08-16T00:56:22.917Z,74.21
2018-08-16T00:58:52.095Z,74.27
2018-08-16T01:01:20.371Z,74.25
2018-08-16T01:03:48.716Z,74.27
2018-08-16T01:06:17.998Z,74.28
2018-08-16T01:08:46.154Z,74.34
2018-08-16T01:11:14.993Z,74.53
2018-08-16T01:13:43.896Z,74.58
2018-08-16T01:16:12.250Z,74.62
2018-08-16T01:18:40.794Z,74.62
2018-08-16T01:21:10.157Z,74.60
2018-08-16T01:23:38.741Z,74.57
2018-08-16T01:26:07.513Z,74.53
2018-08-16T01:28:36.045Z,74.52
2018-08-16T01:31:04.653Z,74.41
2018-08-16T01:33:32.895Z,74.34
2018-08-16T01:36:01.648Z,74.16
2018-08-16T01:38:29.805Z,73.82
2018-08-16T01:40:57.906Z,74.07
2018-08-16T01:43:26.644Z,74.10
2018-08-16T01:45:55.088Z,74.10
2018-08-16T01:48:23.652Z,73.97
2018-08-16T01:50:52.473Z,73.97
2018-08-16T01:53:20.869Z,74.23
2018-08-16T01:55:49.681Z,74.79
2018-08-16T01:58:18.362Z,74.97
2018-08-16T02:00:46.500Z,75.04
2018-08-16T02:03:15.190Z,75.25
2018-08-16T02:05:43.693Z,75.19
2018-08-16T02:08:12.359Z,75.31
2018-08-16T02:10:40.798Z,75.73
2018-08-16T02:13:08.940Z,76.07
2018-08-16T02:15:37.057Z,76.45
2018-08-16T02:18:05.729Z,76.58
2018-08-16T02:20:34.413Z,76.98
2018-08-16T02:23:02.785Z,77.25
2018-08-16T02:25:31.228Z,77.62
2018-08-16T02:27:59.599Z,77.50
2018-08-16T02:30:28.118Z,77.28
2018-08-16T02:32:56.421Z,77.53
2018-08-16T02:35:24.802Z,77.69
2018-08-16T02:37:52.873Z,78.07
2018-08-16T02:40:20.958Z,78.20
2018-08-16T02:42:49.070Z,78.26
2018-08-16T02:45:17.163Z,78.36
2018-08-16T02:47:45.526Z,78.42
2018-08-16T02:50:13.913Z,78.19
2018-08-16T02:52:42.813Z,78.10
2018-08-16T02:55:11.372Z,78.05
2018-08-16T02:57:40.327Z,78.22
2018-08-16T03:00:09.677Z,78.26
2018-08-16T03:02:37.929Z,78.28
2018-08-16T03:05:06.648Z,78.22
2018-08-16T03:07:35.397Z,78.66
2018-08-16T03:10:05.282Z,79.02
2018-08-16T03:12:34.040Z,79.35
2018-08-16T03:15:03.022Z,79.42
2018-08-16T03:17:31.611Z,79.66
2018-08-16T03:20:00.489Z,79.77
2018-08-16T03:22:28.772Z,79.79
2018-08-16T03:24:57.555Z,79.88
2018-08-16T03:27:26.650Z,79.94
2018-08-16T03:29:54.978Z,80.04
2018-08-16T03:32:23.124Z,79.76
2018-08-16T03:34:51.837Z,79.51
2018-08-16T03:37:19.966Z,79.23
2018-08-16T03:39:48.629Z,79.03
2018-08-16T03:42:17.288Z,79.07
2018-08-16T03:44:47.321Z,79.08
2018-08-16T03:47:15.571Z,79.32
2018-08-16T03:49:46.521Z,79.94
2018-08-16T03:52:15.018Z,80.13
2018-08-16T03:54:43.470Z,80.46
2018-08-16T03:57:11.809Z,80.60
2018-08-16T03:59:44.998Z,80.93
2018-08-16T04:02:14.198Z,80.94
2018-08-16T04:04:42.384Z,80.87
2018-08-16T04:07:10.832Z,81.18
2018-08-16T04:09:39.838Z,81.12
2018-08-16T04:12:09.275Z,80.97
2018-08-16T04:14:37.661Z,81.63
2018-08-16T04:17:07.658Z,81.82
2018-08-16T04:19:36.305Z,82.19
2018-08-16T04:22:04.967Z,82.42
2018-08-16T04:24:33.929Z,82.97
2018-08-16T04:27:02.212Z,83.46
2018-08-16T04:29:30.374Z,83.59
2018-08-16T04:31:59.096Z,83.61
2018-08-16T04:34:27.841Z,83.70
2018-08-16T04:36:55.934Z,83.71
2018-08-16T04:39:24.049Z,83.75
2018-08-16T04:41:52.193Z,83.91
2018-08-16T04:44:20.375Z,84.12
2018-08-16T04:46:48.914Z,84.19
2018-08-16T04:49:17.057Z,84.07
2018-08-16T04:51:45.167Z,84.10
2018-08-16T04:54:13.727Z,83.90
2018-08-16T04:56:41.999Z,83.79
2018-08-16T04:59:10.891Z,83.77
2018-08-16T05:01:39.627Z,83.88
2018-08-16T05:04:08.474Z,83.80
2018-08-16T05:06:37.006Z,83.34
2018-08-16T05:09:08.048Z,83.32
2018-08-16T05:11:36.481Z,83.45
2018-08-16T05:14:05.309Z,83.55
2018-08-16T05:16:35.142Z,83.74
2018-08-16T05:19:03.282Z,83.69
2018-08-16T05:21:31.390Z,83.65
2018-08-16T05:23:59.606Z,83.57
2018-08-16T05:26:27.790Z,83.48
2018-08-16T05:28:56.410Z,83.29
2018-08-16T05:31:25.480Z,82.97
2018-08-16T05:33:53.587Z,82.49
2018-08-16T05:36:21.824Z,82.16
2018-08-16T05:38:50.261Z,81.96
2018-08-16T05:41:18.397Z,81.63
2018-08-16T05:43:46.518Z,81.10
2018-08-16T05:46:15.122Z,81.01
2018-08-16T05:48:43.871Z,81.00
2018-08-16T05:51:11.989Z,80.82
2018-08-16T05:53:40.672Z,80.77
2018-08-16T05:56:09.097Z,80.48
2018-08-16T05:58:37.281Z,80.25
2018-08-16T06:01:06.001Z,80.06
2018-08-16T06:03:34.418Z,79.63
2018-08-16T06:06:02.622Z,79.01
2018-08-16T06:08:30.765Z,78.75
2018-08-16T06:10:58.930Z,79.30
2018-08-16T06:13:27.538Z,79.29
2018-08-16T06:15:56.318Z,78.95
2018-08-16T06:18:25.138Z,78.56
2018-08-16T06:20:53.245Z,78.28
2018-08-16T06:23:22.110Z,77.85
2018-08-16T06:25:50.783Z,77.52
2018-08-16T06:28:18.898Z,77.02
2018-08-16T06:30:47.706Z,76.66
2018-08-16T06:33:16.138Z,76.22
2018-08-16T06:35:44.394Z,75.71
2018-08-16T06:38:13.350Z,75.51
2018-08-16T06:40:41.714Z,74.99
2018-08-16T06:43:09.928Z,74.71
2018-08-16T06:45:38.921Z,74.24
2018-08-16T06:48:07.142Z,73.27
2018-08-16T06:50:35.585Z,72.80
2018-08-16T06:53:04.881Z,72.41
2018-08-16T06:55:33.201Z,72.11
2018-08-16T06:58:01.396Z,71.81
2018-08-16T07:00:30.085Z,71.51
2018-08-16T07:02:58.181Z,70.88
2018-08-16T07:05:26.413Z,69.98
2018-08-16T07:07:55.240Z,69.40
2018-08-16T07:10:23.355Z,69.21
2018-08-16T07:12:51.537Z,68.40
2018-08-16T07:15:20.043Z,68.49
2018-08-16T07:17:48.540Z,67.66
2018-08-16T07:20:17.234Z,67.07
2018-08-16T07:22:45.633Z,65.00
2018-08-16T07:25:13.744Z,63.72
2018-08-16T07:27:41.941Z,63.06
2018-08-16T07:30:10.616Z,62.39
2018-08-16T07:32:39.424Z,60.23
2018-08-16T07:35:08.281Z,59.07
2018-08-16T07:37:37.331Z,58.51
2018-08-16T07:40:06.118Z,57.97
2018-08-16T07:42:34.746Z,57.65
2018-08-16T07:45:03.009Z,56.37
2018-08-16T07:47:31.137Z,55.59
2018-08-16T07:49:59.304Z,54.99
2018-08-16T07:52:27.469Z,53.81
2018-08-16T07:54:55.562Z,52.91
2018-08-16T07:57:23.979Z,52.03
2018-08-16T07:59:52.214Z,51.58
2018-08-16T08:02:20.346Z,50.74
2018-08-16T08:04:48.498Z,49.64
2018-08-16T08:07:16.689Z,48.93
2018-08-16T08:09:44.839Z,47.35
2018-08-16T08:12:13.710Z,46.70
2018-08-16T08:14:41.822Z,45.76
2018-08-16T08:17:10.261Z,45.48
2018-08-16T08:19:38.438Z,45.04
2018-08-16T08:22:07.128Z,44.23
2018-08-16T08:24:35.385Z,43.67
2018-08-16T08:27:03.858Z,44.04
2018-08-16T08:29:32.347Z,43.69
2018-08-16T08:32:00.683Z,43.75
2018-08-16T08:34:28.962Z,42.73
2018-08-16T08:37:08.343Z,42.76
2018-08-16T08:39:36.438Z,42.60
2018-08-16T08:42:04.841Z,42.34
2018-08-16T08:44:33.387Z,42.76
2018-08-16T08:47:01.532Z,41.90
2018-08-16T08:49:30.197Z,42.50
2018-08-16T08:51:58.952Z,41.99
2018-08-16T08:54:42.342Z,41.61
2018-08-16T08:57:22.132Z,41.54
2018-08-16T08:59:50.490Z,41.31
2018-08-16T09:02:19.168Z,41.23
2018-08-16T09:04:47.625Z,40.08
2018-08-16T09:07:17.077Z,40.35
2018-08-16T09:11:02.057Z,39.44
2018-08-16T09:13:41.186Z,39.01
2018-08-16T09:16:12.445Z,38.41
2018-08-16T09:18:40.888Z,38.97
2018-08-16T09:21:10.174Z,39.38
2018-08-16T09:23:38.616Z,39.64
2018-08-16T09:26:12.369Z,38.46
2018-08-16T09:28:40.993Z,38.44
2018-08-16T09:31:20.501Z,38.62
2018-08-16T09:33:59.307Z,37.77
2018-08-16T09:36:28.098Z,37.37
2018-08-16T09:38:57.305Z,37.08
2018-08-16T09:41:25.711Z,36.69
2018-08-16T09:43:54.177Z,36.35
2018-08-16T09:46:59.221Z,36.43
2018-08-16T09:49:28.409Z,35.60
2018-08-16T09:51:57.294Z,35.59
2018-08-16T09:54:26.307Z,35.67
2018-08-16T09:56:55.993Z,34.65
2018-08-16T09:59:24.429Z,35.09
2018-08-16T10:01:52.907Z,34.97
2018-08-16T10:04:22.326Z,34.20
2018-08-16T10:06:50.746Z,33.98
2018-08-16T10:09:22.150Z,34.86
2018-08-16T10:11:50.856Z,35.16
2018-08-16T10:14:19.566Z,34.10
2018-08-16T10:16:48.031Z,33.85
2018-08-16T10:19:16.661Z,33.54
2018-08-16T10:21:44.863Z,32.64
2018-08-16T10:24:13.200Z,32.94
2018-08-16T10:26:42.341Z,32.85
2018-08-16T10:29:11.253Z,33.17
2018-08-16T10:31:39.968Z,32.81
2018-08-16T10:34:08.629Z,33.02
2018-08-16T10:36:36.833Z,32.40
2018-08-16T10:39:08.242Z,32.52
2018-08-16T10:41:36.845Z,33.54
2018-08-16T10:44:05.199Z,32.76
2018-08-16T10:46:33.480Z,32.59
2018-08-16T10:49:02.028Z,32.67
2018-08-16T10:51:30.499Z,32.51
2018-08-16T10:53:59.232Z,31.88
2018-08-16T10:56:27.700Z,32.43
2018-08-16T10:58:55.855Z,32.54
2018-08-16T11:01:24.073Z,31.83
2018-08-16T11:03:52.836Z,32.60
2018-08-16T11:06:21.044Z,31.52
2018-08-16T11:08:49.699Z,31.07
2018-08-16T11:11:18.058Z,31.04
2018-08-16T11:13:46.334Z,31.79
2018-08-16T11:16:15.009Z,31.16
2018-08-16T11:18:44.105Z,30.31
2018-08-16T11:21:12.370Z,29.73
2018-08-16T11:23:40.529Z,30.50
2018-08-16T11:26:09.396Z,30.14
2018-08-16T11:28:38.394Z,29.86
2018-08-16T11:31:07.163Z,29.98
2018-08-16T11:33:36.983Z,29.75
2018-08-16T11:36:06.702Z,30.25
2018-08-16T11:38:37.629Z,29.68
2018-08-16T11:41:06.203Z,29.31
2018-08-16T11:43:34.336Z,29.23
2018-08-16T11:46:02.885Z,29.61
2018-08-16T11:48:31.545Z,28.30
2018-08-16T11:50:59.763Z,29.35
2018-08-16T11:53:28.436Z,29.70
2018-08-16T11:55:56.687Z,28.84
2018-08-16T11:58:24.877Z,29.39
2018-08-16T12:00:53.475Z,29.23
2018-08-16T12:03:21.833Z,29.11
2018-08-16T12:05:50.700Z,29.45
2018-08-16T12:08:20.590Z,30.12
2018-08-16T12:10:50.151Z,28.23
2018-08-16T12:13:18.874Z,28.61
2018-08-16T12:15:47.471Z,28.70
2018-08-16T12:18:16.311Z,28.06
2018-08-16T12:20:45.410Z,27.58
2018-08-16T12:23:13.654Z,26.89
2018-08-16T12:25:41.986Z,26.41
2018-08-16T12:28:11.160Z,26.33
2018-08-16T12:30:40.031Z,26.13
2018-08-16T12:33:09.194Z,26.43
2018-08-16T12:35:38.329Z,26.66
2018-08-16T12:38:06.536Z,26.92
2018-08-16T12:40:36.455Z,25.96
2018-08-16T12:43:07.601Z,26.00
2018-08-16T12:45:37.847Z,25.76
2018-08-16T12:48:06.334Z,26.35
2018-08-16T12:50:34.573Z,26.23
2018-08-16T12:53:04.292Z,25.76
2018-08-16T12:55:33.350Z,25.49
2018-08-16T12:58:02.699Z,25.64
2018-08-16T13:00:32.035Z,26.01
2018-08-16T13:03:02.127Z,26.38
2018-08-16T13:05:31.360Z,26.03
2018-08-16T13:07:59.703Z,25.38
2018-08-16T13:10:28.382Z,25.71
2018-08-16T13:12:56.989Z,25.37
2018-08-16T13:15:26.249Z,25.33
2018-08-16T13:17:54.399Z,25.90
2018-08-16T13:20:23.390Z,25.42
2018-08-16T13:22:51.570Z,25.40
2018-08-16T13:25:19.771Z,25.95
2018-08-16T13:27:50.610Z,25.70
2018-08-16T13:30:20.599Z,25.81
2018-08-16T13:32:49.388Z,25.32
2018-08-16T13:35:18.415Z,25.39
2018-08-16T13:37:46.740Z,25.32
2018-08-16T13:40:16.766Z,25.21
2018-08-16T13:42:45.446Z,26.05
2018-08-16T13:45:15.547Z,26.29
2018-08-16T13:47:44.418Z,26.42
2018-08-16T13:50:13.726Z,25.95
2018-08-16T13:52:42.491Z,26.29
2018-08-16T13:55:10.826Z,25.89
2018-08-16T13:57:39.331Z,26.08
2018-08-16T14:00:09.782Z,26.30
2018-08-16T14:02:38.483Z,25.99
2018-08-16T14:05:07.811Z,25.55
2018-08-16T14:07:36.684Z,26.43
2018-08-16T14:10:06.910Z,26.59
2018-08-16T14:12:35.621Z,26.49
2018-08-16T14:15:05.002Z,26.59
2018-08-16T14:17:34.747Z,26.55
2018-08-16T14:20:05.904Z,26.96
2018-08-16T14:22:35.149Z,26.98
2018-08-16T14:25:05.113Z,26.80
2018-08-16T14:27:33.319Z,26.75
2018-08-16T14:30:13.695Z,26.81
2018-08-16T14:32:42.417Z,26.76
2018-08-16T14:35:11.519Z,26.59
2018-08-16T14:37:40.327Z,27.21
2018-08-16T14:40:11.097Z,27.56
2018-08-16T14:42:39.953Z,27.71
2018-08-16T14:45:08.245Z,27.08
2018-08-16T14:47:36.811Z,27.31
2018-08-16T14:50:06.326Z,27.29
2018-08-16T14:52:37.354Z,27.16
2018-08-16T14:55:09.469Z,27.44
2018-08-16T14:57:51.906Z,27.11
2018-08-16T15:00:24.700Z,27.34
2018-08-16T15:02:55.300Z,27.35
2018-08-16T15:05:27.136Z,27.00
2018-08-16T15:07:59.554Z,27.23
2018-08-16T15:10:32.736Z,27.18
2018-08-16T15:13:08.170Z,27.46
2018-08-16T15:15:36.552Z,27.30
2018-08-16T15:18:11.635Z,27.37
2018-08-16T15:20:42.660Z,27.20
2018-08-16T15:23:14.690Z,27.67
2018-08-16T15:25:44.113Z,27.56
2018-08-16T15:28:12.933Z,27.08
2018-08-16T15:30:42.227Z,27.61
2018-08-16T15:33:11.141Z,27.67
2018-08-16T15:35:39.635Z,27.36
2018-08-16T15:38:08.032Z,27.30
2018-08-16T15:40:38.414Z,27.42
2018-08-16T15:43:08.978Z,27.73
2018-08-16T15:45:38.098Z,27.58
2018-08-16T15:48:14.936Z,27.58
2018-08-16T15:50:44.891Z,27.67
2018-08-16T15:53:13.353Z,27.41
2018-08-16T15:55:42.575Z,27.57
2018-08-16T15:58:11.725Z,27.25
2018-08-16T16:00:44.401Z,27.60
2018-08-16T16:03:15.852Z,27.15
2018-08-16T16:05:44.897Z,27.23
2018-08-16T16:08:13.472Z,27.11
2018-08-16T16:10:43.157Z,27.34
2018-08-16T16:13:11.889Z,27.20
2018-08-16T16:15:40.057Z,26.53
2018-08-16T16:18:13.333Z,26.48
2018-08-16T16:20:41.783Z,26.67
2018-08-16T16:23:11.521Z,27.11
2018-08-16T16:25:40.044Z,27.05
2018-08-16T16:28:09.611Z,27.08
2018-08-16T16:30:41.237Z,26.80
2018-08-16T16:33:11.876Z,27.38
2018-08-16T16:35:43.742Z,27.34
2018-08-16T16:38:15.502Z,26.99
2018-08-16T16:40:46.500Z,26.95
2018-08-16T16:43:17.958Z,26.80
2018-08-16T16:45:50.888Z,26.97
2018-08-16T16:48:20.266Z,28.16
2018-08-16T16:50:50.813Z,27.77
2018-08-16T16:53:20.423Z,28.26
2018-08-16T16:55:53.331Z,28.45
2018-08-16T16:58:22.433Z,27.98
2018-08-16T17:00:56.821Z,28.07
2018-08-16T17:03:30.042Z,27.77
2018-08-16T17:06:04.819Z,27.89
2018-08-16T17:08:33.464Z,28.34
2018-08-16T17:11:03.377Z,28.15
2018-08-16T17:13:32.363Z,28.10
2018-08-16T17:16:02.208Z,29.02
2018-08-16T17:18:33.098Z,29.27
2018-08-16T17:21:02.338Z,28.78
2018-08-16T17:23:33.439Z,28.98
2018-08-16T17:26:06.945Z,28.58
2018-08-16T17:28:38.078Z,28.66
2018-08-16T17:31:11.063Z,28.66
2018-08-16T17:33:41.545Z,28.80
2018-08-16T17:36:10.851Z,29.04
2018-08-16T17:38:39.802Z,29.09
2018-08-16T17:41:08.308Z,29.25
2018-08-16T17:43:37.936Z,29.35
2018-08-16T17:46:06.562Z,29.48
2018-08-16T17:48:40.318Z,29.60
2018-08-16T17:51:11.306Z,29.77
2018-08-16T17:53:44.317Z,29.92
2018-08-16T17:56:14.767Z,30.27
2018-08-16T17:58:44.665Z,30.63
2018-08-16T18:01:15.671Z,31.12
2018-08-16T18:03:46.061Z,31.36
2018-08-16T18:06:14.822Z,31.66
2018-08-16T18:08:45.682Z,32.04
2018-08-16T18:11:14.658Z,32.01
2018-08-16T18:13:44.245Z,32.20
2018-08-16T18:16:18.666Z,32.79
2018-08-16T18:18:53.119Z,33.23
2018-08-16T18:21:21.865Z,33.50
2018-08-16T18:23:50.749Z,33.85
2018-08-16T18:26:19.419Z,34.09
2018-08-16T18:28:47.956Z,34.35
2018-08-16T18:31:16.863Z,34.50
2018-08-16T18:33:45.076Z,34.92
2018-08-16T18:36:13.963Z,35.26
2018-08-16T18:38:42.957Z,35.53
2018-08-16T18:41:13.373Z,35.89
2018-08-16T18:43:41.797Z,36.18
2018-08-16T18:46:11.080Z,36.54
2018-08-16T18:48:41.496Z,36.79
2018-08-16T18:51:11.177Z,37.15
2018-08-16T18:53:39.957Z,37.65
2018-08-16T18:56:08.944Z,37.84
2018-08-16T18:58:38.013Z,37.95
2018-08-16T19:01:07.203Z,38.02
2018-08-16T19:03:38.253Z,38.60
2018-08-16T19:06:07.508Z,39.18
2018-08-16T19:08:36.546Z,39.09
2018-08-16T19:11:06.034Z,38.96
2018-08-16T19:13:35.933Z,39.15
2018-08-16T19:16:10.930Z,39.30
2018-08-16T19:18:47.949Z,39.49
2018-08-16T19:21:19.424Z,39.69
2018-08-16T19:23:52.558Z,40.03
2018-08-16T19:26:22.770Z,40.23
2018-08-16T19:28:51.699Z,40.45
2018-08-16T19:31:21.345Z,41.11
2018-08-16T19:33:50.115Z,41.26
2018-08-16T19:36:18.708Z,41.49
2018-08-16T19:38:48.832Z,41.54
2018-08-16T19:41:18.147Z,41.77
2018-08-16T19:43:46.779Z,41.92
2018-08-16T19:46:16.010Z,42.15
2018-08-16T19:48:45.384Z,42.30
2018-08-16T19:51:14.019Z,42.50
2018-08-16T19:53:42.925Z,42.75
2018-08-16T19:56:14.594Z,43.11
2018-08-16T19:58:43.283Z,43.25
2018-08-16T20:01:13.262Z,43.80
2018-08-16T20:03:43.785Z,43.93
2018-08-16T20:06:13.224Z,44.09
2018-08-16T20:08:41.984Z,44.49
2018-08-16T20:11:10.468Z,45.02
2018-08-16T20:13:39.195Z,45.46
2018-08-16T20:16:13.801Z,45.64
2018-08-16T20:18:41.958Z,45.90
2018-08-16T20:21:10.366Z,45.95
2018-08-16T20:23:38.999Z,45.97
2018-08-16T20:26:07.986Z,46.04
2018-08-16T20:28:37.012Z,46.06
2018-08-16T20:31:06.826Z,46.27
2018-08-16T20:33:35.128Z,46.35
2018-08-16T20:36:04.029Z,46.39
2018-08-16T20:38:32.700Z,46.51
2018-08-16T20:41:01.029Z,46.43
2018-08-16T20:43:29.241Z,46.55
2018-08-16T20:45:58.096Z,46.82
2018-08-16T20:48:26.376Z,47.19
2018-08-16T20:50:54.501Z,47.81
2018-08-16T20:53:23.896Z,48.05
2018-08-16T20:55:52.161Z,48.18
2018-08-16T20:58:22.597Z,48.44
2018-08-16T21:00:51.827Z,48.71
2018-08-16T21:03:20.675Z,48.54
2018-08-16T21:05:49.613Z,48.44
2018-08-16T21:08:18.401Z,47.86
2018-08-16T21:10:46.786Z,47.56
2018-08-16T21:13:15.345Z,47.32
2018-08-16T21:15:45.119Z,47.12
2018-08-16T21:18:16.501Z,47.07
2018-08-16T21:20:46.295Z,47.09
2018-08-16T21:23:18.993Z,47.17
2018-08-16T21:25:51.210Z,47.31
2018-08-16T21:28:23.072Z,47.46
2018-08-16T21:30:54.313Z,47.84
2018-08-16T21:33:23.170Z,48.51
2018-08-16T21:35:51.431Z,48.81
2018-08-16T21:38:19.562Z,49.20
2018-08-16T21:40:48.125Z,49.46
2018-08-16T21:43:16.482Z,49.86
2018-08-16T21:45:45.362Z,50.03
2018-08-16T21:48:13.832Z,50.09
2018-08-16T21:50:42.218Z,50.04
2018-08-16T21:53:10.706Z,50.16
2018-08-16T21:55:39.546Z,50.36
2018-08-16T21:58:08.295Z,50.67
2018-08-16T22:00:48.075Z,50.87
2018-08-16T22:03:19.664Z,50.99
2018-08-16T22:06:02.534Z,51.02
2018-08-16T22:08:41.242Z,51.11
2018-08-16T22:11:09.704Z,51.17
2018-08-16T22:13:38.791Z,51.29
2018-08-16T22:16:07.594Z,51.48
2018-08-16T22:18:36.598Z,51.67
2018-08-16T22:21:07.613Z,51.85
2018-08-16T22:23:35.756Z,51.98
2018-08-16T22:26:04.868Z,51.89
2018-08-16T22:28:33.689Z,51.92
2018-08-16T22:31:01.976Z,51.88
2018-08-16T22:33:30.609Z,51.81
2018-08-16T22:36:00.077Z,51.79
2018-08-16T22:38:29.108Z,51.86
2018-08-16T22:40:57.397Z,51.93
2018-08-16T22:43:25.639Z,51.95
2018-08-16T22:45:55.258Z,52.04
2018-08-16T22:48:24.882Z,51.99
2018-08-16T22:50:53.820Z,52.45
2018-08-16T22:53:23.282Z,52.68
2018-08-16T22:55:52.161Z,52.75
2018-08-16T22:58:20.400Z,52.64
2018-08-16T23:00:48.655Z,52.75
2018-08-16T23:03:16.956Z,52.75
2018-08-16T23:05:45.173Z,53.11
2018-08-16T23:08:13.260Z,53.49
2018-08-16T23:10:41.382Z,53.50
2018-08-16T23:13:09.733Z,53.62
2018-08-16T23:15:38.837Z,53.89
2018-08-16T23:18:07.172Z,53.92
2018-08-16T23:20:35.400Z,53.99
2018-08-16T23:23:03.511Z,53.98
2018-08-16T23:25:31.678Z,53.96
2018-08-16T23:27:59.922Z,54.04
2018-08-16T23:30:28.381Z,54.12
2018-08-16T23:32:56.757Z,54.13
2018-08-16T23:35:25.316Z,54.15
2018-08-16T23:37:54.060Z,54.26
2018-08-16T23:40:22.182Z,54.18
2018-08-16T23:42:50.735Z,54.18
2018-08-16T23:45:19.692Z,54.40
2018-08-16T23:47:58.634Z,54.66
2018-08-16T23:50:27.407Z,54.83
2018-08-16T23:52:55.654Z,54.98
2018-08-16T23:55:23.889Z,55.13
2018-08-16T23:57:52.487Z,55.27
